Time;durP1;ratioP1;P1;durP2;ratioP2;P2;SDS_P1;SDS_P2;PMS_P1;PMS_P2;Temp;Humidity;BMP_temperature;BMP_pressure;BME280_temperature;BME280_humidity;BME280_pressure;Samples;Min_cycle;Max_cycle;Signal;HPM_P1;HPM_P2
2024/02/10 00:04:14;;;;;;;4.93;4.00;;;;;;;;;;10247511;28;20250;-62
2024/02/10 00:09:15;;;;;;;5.43;4.93;;;;;;;;;;10246841;28;20035;-61
2024/02/10 00:14:20;;;;;;;7.60;4.10;;;;;;;;;;10242027;28;20396;-60
2024/02/10 00:19:21;;;;;;;5.80;4.50;;;;;;;;;;10245338;28;20078;-60
2024/02/10 00:24:26;;;;;;;5.35;4.40;;;;;;;;;;10246421;28;20090;-60
2024/02/10 00:29:28;;;;;;;4.88;4.32;;;;;;;;;;10233382;28;20032;-60
2024/02/10 00:34:34;;;;;;;6.18;4.68;;;;;;;;;;10245826;28;20126;-60
2024/02/10 00:39:35;;;;;;;5.85;4.35;;;;;;;;;;10245900;28;20150;-60
2024/02/10 00:44:36;;;;;;;5.03;4.53;;;;;;;;;;10244627;28;20027;-60
2024/02/10 00:49:36;;;;;;;5.05;3.90;;;;;;;;;;10244979;28;20376;-60
2024/02/10 00:54:37;;;;;;;4.55;4.15;;;;;;;;;;10244821;28;20046;-60
2024/02/10 00:59:41;;;;;;;4.65;4.03;;;;;;;;;;10244623;28;20119;-62
2024/02/10 01:04:41;;;;;;;4.25;3.85;;;;;;;;;;10244681;28;20098;-61
2024/02/10 01:09:52;;;;;;;5.25;4.22;;;;;;;;;;10244594;28;20474;-62
2024/02/10 01:14:55;;;;;;;4.50;4.10;;;;;;;;;;10258990;28;20023;-60
2024/02/10 01:19:55;;;;;;;3.85;3.40;;;;;;;;;;10243296;28;20030;-60
2024/02/10 01:24:56;;;;;;;4.85;4.13;;;;;;;;;;10243276;28;20399;-60
2024/02/10 01:29:57;;;;;;;4.65;4.20;;;;;;;;;;10244652;28;20050;-60
2024/02/10 01:34:58;;;;;;;4.65;3.95;;;;;;;;;;10243096;28;20028;-59
2024/02/10 01:40:01;;;;;;;6.32;4.57;;;;;;;;;;10243335;28;20088;-60
2024/02/10 01:45:01;;;;;;;4.10;3.60;;;;;;;;;;10243133;28;20050;-59
2024/02/10 01:50:05;;;;;;;8.82;4.05;;;;;;;;;;10243527;28;20027;-60
2024/02/10 01:55:09;;;;;;;4.22;3.78;;;;;;;;;;10243894;28;20058;-59
2024/02/10 02:00:13;;;;;;;4.63;3.78;;;;;;;;;;10247337;28;20027;-60
2024/02/10 02:05:15;;;;;;;5.13;4.00;;;;;;;;;;10250719;28;20203;-60
2024/02/10 02:10:20;;;;;;;6.68;4.28;;;;;;;;;;10249958;28;20142;-59
2024/02/10 02:15:21;;;;;;;4.05;3.58;;;;;;;;;;10250274;28;20027;-59
2024/02/10 02:20:22;;;;;;;5.30;3.95;;;;;;;;;;10249865;28;20035;-60
2024/02/10 02:25:23;;;;;;;7.85;4.00;;;;;;;;;;10250390;28;20041;-60
2024/02/10 02:30:24;;;;;;;5.68;4.13;;;;;;;;;;10250081;28;20027;-61
2024/02/10 02:35:25;;;;;;;5.43;4.70;;;;;;;;;;10247197;28;20125;-62
2024/02/10 02:40:26;;;;;;;4.95;3.80;;;;;;;;;;10237086;28;20035;-59
2024/02/10 02:45:27;;;;;;;5.35;4.07;;;;;;;;;;10249743;28;20035;-59
2024/02/10 02:50:28;;;;;;;6.57;3.97;;;;;;;;;;10249990;28;20117;-59
2024/02/10 02:55:30;;;;;;;4.90;3.88;;;;;;;;;;10248540;28;20373;-59
2024/02/10 03:00:31;;;;;;;4.65;3.83;;;;;;;;;;10248341;28;20031;-60
2024/02/10 03:05:32;;;;;;;5.55;4.03;;;;;;;;;;10248816;28;20039;-60
2024/02/10 03:10:33;;;;;;;6.93;4.07;;;;;;;;;;10248275;28;20036;-60
2024/02/10 03:15:37;;;;;;;6.78;4.10;;;;;;;;;;10248993;28;20119;-60
2024/02/10 03:20:38;;;;;;;4.50;3.92;;;;;;;;;;10247565;28;20050;-60
2024/02/10 03:25:42;;;;;;;5.43;4.13;;;;;;;;;;10246920;28;20030;-59
2024/02/10 03:30:42;;;;;;;5.03;4.18;;;;;;;;;;10246971;28;20027;-59
2024/02/10 03:35:43;;;;;;;7.70;4.05;;;;;;;;;;10247309;28;20043;-60
2024/02/10 03:40:43;;;;;;;4.35;3.67;;;;;;;;;;10247606;28;20039;-59
2024/02/10 03:45:44;;;;;;;4.22;3.70;;;;;;;;;;10247721;28;20023;-59
2024/02/10 03:50:45;;;;;;;4.85;3.25;;;;;;;;;;10247943;28;20368;-60
2024/02/10 03:55:46;;;;;;;4.22;3.35;;;;;;;;;;10246863;28;20051;-60
2024/02/10 04:00:47;;;;;;;4.30;3.90;;;;;;;;;;10247164;28;20379;-60
2024/02/10 04:05:48;;;;;;;5.43;4.13;;;;;;;;;;10246753;28;20031;-60
2024/02/10 04:10:49;;;;;;;5.90;3.63;;;;;;;;;;10246464;28;20122;-59
2024/02/10 04:15:49;;;;;;;4.88;3.13;;;;;;;;;;10245910;28;20037;-60
2024/02/10 04:20:50;;;;;;;3.72;3.17;;;;;;;;;;10246967;28;20467;-61
2024/02/10 04:25:50;;;;;;;8.52;3.75;;;;;;;;;;10245180;28;20042;-61
2024/02/10 04:30:52;;;;;;;3.88;3.15;;;;;;;;;;10246053;28;20170;-60
2024/02/10 04:35:52;;;;;;;4.90;3.42;;;;;;;;;;10245553;28;20082;-60
2024/02/10 04:40:53;;;;;;;4.88;3.25;;;;;;;;;;10245924;28;20543;-60
2024/02/10 04:45:53;;;;;;;4.22;3.35;;;;;;;;;;10241103;28;20034;-60
2024/02/10 04:50:56;;;;;;;5.97;3.33;;;;;;;;;;10246262;28;20098;-60
2024/02/10 04:55:57;;;;;;;6.32;3.67;;;;;;;;;;10244908;28;20051;-62
2024/02/10 05:00:59;;;;;;;3.65;3.22;;;;;;;;;;10244990;28;20372;-60
2024/02/10 05:06:00;;;;;;;3.67;3.05;;;;;;;;;;10232935;28;20380;-61
2024/02/10 05:11:01;;;;;;;6.32;3.63;;;;;;;;;;10244507;28;20032;-61
2024/02/10 05:16:01;;;;;;;4.95;3.22;;;;;;;;;;10245280;28;20101;-61
2024/02/10 05:21:02;;;;;;;4.88;3.35;;;;;;;;;;10244735;28;20554;-60
2024/02/10 05:26:03;;;;;;;5.00;3.08;;;;;;;;;;10244256;28;20498;-64
2024/02/10 05:31:04;;;;;;;5.30;3.20;;;;;;;;;;10244069;28;20066;-61
2024/02/10 05:36:07;;;;;;;6.72;3.58;;;;;;;;;;10250150;28;20070;-66
2024/02/10 05:41:08;;;;;;;4.57;3.15;;;;;;;;;;10252038;28;20062;-65
2024/02/10 05:46:09;;;;;;;5.18;2.95;;;;;;;;;;10252086;28;20547;-65
2024/02/10 05:51:11;;;;;;;4.60;2.88;;;;;;;;;;10252336;28;20384;-63
2024/02/10 05:56:15;;;;;;;6.10;3.40;;;;;;;;;;10251413;28;20040;-63
2024/02/10 06:01:19;;;;;;;4.95;3.05;;;;;;;;;;10251821;28;20094;-62
2024/02/10 06:06:20;;;;;;;4.22;2.97;;;;;;;;;;10250563;28;20035;-63
2024/02/10 06:11:25;;;;;;;2.83;2.60;;;;;;;;;;10251576;28;20027;-63
2024/02/10 06:16:26;;;;;;;2.95;2.53;;;;;;;;;;10250496;28;20023;-63
2024/02/10 06:21:26;;;;;;;3.45;2.72;;;;;;;;;;10249589;28;20027;-60
2024/02/10 06:26:27;;;;;;;5.88;2.60;;;;;;;;;;10249539;28;20024;-62
2024/02/10 06:31:27;;;;;;;5.32;2.65;;;;;;;;;;10250609;28;20427;-61
2024/02/10 06:36:30;;;;;;;3.05;2.50;;;;;;;;;;10250245;28;20098;-60
2024/02/10 06:41:31;;;;;;;4.78;3.15;;;;;;;;;;10250671;28;20415;-60
2024/02/10 06:46:34;;;;;;;3.83;2.80;;;;;;;;;;10249527;28;20544;-59
2024/02/10 06:51:35;;;;;;;5.47;2.97;;;;;;;;;;10248943;28;20027;-59
2024/02/10 06:56:35;;;;;;;5.13;2.97;;;;;;;;;;10248973;28;20031;-60
2024/02/10 07:01:36;;;;;;;3.92;2.55;;;;;;;;;;10249098;28;20035;-60
2024/02/10 07:06:37;;;;;;;5.63;2.88;;;;;;;;;;10248143;28;20077;-60
2024/02/10 07:11:37;;;;;;;5.47;2.33;;;;;;;;;;10248883;28;20082;-62
2024/02/10 07:16:38;;;;;;;3.30;2.50;;;;;;;;;;10248337;28;20391;-60
2024/02/10 07:21:45;;;;;;;4.72;2.38;;;;;;;;;;10248302;28;20031;-60
2024/02/10 07:26:47;;;;;;;2.55;2.13;;;;;;;;;;10247700;28;20039;-60
2024/02/10 07:31:47;;;;;;;3.97;2.60;;;;;;;;;;10248146;28;20033;-60
2024/02/10 07:36:55;;;;;;;2.42;2.22;;;;;;;;;;10247259;28;20051;-60
2024/02/10 07:41:59;;;;;;;4.65;2.40;;;;;;;;;;10240806;28;20027;-63
2024/02/10 07:46:59;;;;;;;2.67;2.13;;;;;;;;;;10246720;28;20035;-61
2024/02/10 07:52:01;;;;;;;3.20;2.65;;;;;;;;;;10247091;28;20035;-61
2024/02/10 07:57:02;;;;;;;3.17;2.30;;;;;;;;;;10247264;28;20063;-61
2024/02/10 08:02:04;;;;;;;2.22;2.03;;;;;;;;;;10247207;28;20471;-61
2024/02/10 08:07:07;;;;;;;3.70;2.38;;;;;;;;;;10245428;28;20414;-61
2024/02/10 08:12:08;;;;;;;3.83;2.47;;;;;;;;;;10247259;28;20027;-61
2024/02/10 08:17:12;;;;;;;4.22;2.40;;;;;;;;;;10246330;28;20422;-61
2024/02/10 08:22:13;;;;;;;3.65;2.00;;;;;;;;;;10244149;28;20081;-60
2024/02/10 08:27:15;;;;;;;4.70;2.22;;;;;;;;;;10245687;28;20066;-59
2024/02/10 08:32:16;;;;;;;2.88;2.35;;;;;;;;;;10247497;28;20046;-60
2024/02/10 08:37:17;;;;;;;6.20;2.22;;;;;;;;;;10245167;28;20134;-61
2024/02/10 08:42:19;;;;;;;4.90;2.20;;;;;;;;;;10246063;28;20118;-62
2024/02/10 08:47:19;;;;;;;2.85;2.28;;;;;;;;;;10243538;28;20106;-62
2024/02/10 08:52:20;;;;;;;2.33;2.13;;;;;;;;;;10244851;28;20022;-59
2024/02/10 08:57:25;;;;;;;2.67;2.08;;;;;;;;;;10245338;28;20444;-65
2024/02/10 09:02:27;;;;;;;3.05;2.35;;;;;;;;;;10247288;28;20027;-59
2024/02/10 09:07:29;;;;;;;4.93;2.50;;;;;;;;;;10259700;28;20035;-60
2024/02/10 09:12:30;;;;;;;4.88;2.58;;;;;;;;;;10257931;28;20043;-59
2024/02/10 09:17:31;;;;;;;9.18;2.33;;;;;;;;;;10253172;28;20387;-59
2024/02/10 09:22:31;;;;;;;3.75;2.67;;;;;;;;;;10258510;28;20027;-60
2024/02/10 09:27:32;;;;;;;4.25;2.35;;;;;;;;;;10257889;28;20039;-61
2024/02/10 09:32:35;;;;;;;6.50;2.40;;;;;;;;;;10257587;28;20019;-61
2024/02/10 09:37:36;;;;;;;3.65;2.35;;;;;;;;;;10257405;28;20187;-60
2024/02/10 09:42:42;;;;;;;13.32;3.50;;;;;;;;;;10242419;28;20188;-60
2024/02/10 09:47:47;;;;;;;13.05;3.13;;;;;;;;;;10253573;28;20047;-61
2024/02/10 09:52:48;;;;;;;9.30;3.25;;;;;;;;;;10254456;28;20258;-60
2024/02/10 09:57:50;;;;;;;18.45;3.15;;;;;;;;;;10257078;28;20582;-61
2024/02/10 10:02:54;;;;;;;26.40;4.68;;;;;;;;;;10255461;28;20034;-60
2024/02/10 10:07:55;;;;;;;31.42;4.75;;;;;;;;;;10248972;28;20074;-61
2024/02/10 10:12:56;;;;;;;21.50;4.65;;;;;;;;;;10252079;28;20023;-62
2024/02/10 10:17:56;;;;;;;15.27;4.55;;;;;;;;;;10225336;28;20092;-60
2024/02/10 10:22:57;;;;;;;21.52;5.20;;;;;;;;;;10246991;28;20490;-59
2024/02/10 10:27:57;;;;;;;25.00;4.30;;;;;;;;;;10247766;28;20024;-60
2024/02/10 10:33:01;;;;;;;21.73;4.90;;;;;;;;;;10251708;28;20031;-60
2024/02/10 10:38:02;;;;;;;21.27;4.88;;;;;;;;;;10246068;28;20095;-60
2024/02/10 10:43:11;;;;;;;12.52;4.72;;;;;;;;;;10250098;28;20376;-61
2024/02/10 10:48:13;;;;;;;18.08;4.13;;;;;;;;;;10249745;28;20114;-60
2024/02/10 10:53:15;;;;;;;16.42;4.32;;;;;;;;;;10239880;28;20035;-61
2024/02/10 10:58:25;;;;;;;12.95;4.22;;;;;;;;;;10240478;28;20208;-61
2024/02/10 11:03:26;;;;;;;10.98;3.72;;;;;;;;;;10244831;28;20046;-60
2024/02/10 11:08:27;;;;;;;10.10;3.85;;;;;;;;;;10239806;28;20402;-60
2024/02/10 11:13:30;;;;;;;19.25;4.38;;;;;;;;;;10244810;28;20024;-60
2024/02/10 11:18:37;;;;;;;11.82;4.10;;;;;;;;;;10248901;28;20027;-59
2024/02/10 11:23:38;;;;;;;11.45;4.50;;;;;;;;;;10247528;28;20035;-60
2024/02/10 11:28:38;;;;;;;16.00;4.15;;;;;;;;;;10244271;28;20031;-59
2024/02/10 11:33:39;;;;;;;15.30;4.25;;;;;;;;;;10247409;28;20053;-59
2024/02/10 11:38:41;;;;;;;13.40;3.60;;;;;;;;;;10247679;28;20035;-60
2024/02/10 11:43:43;;;;;;;9.63;2.92;;;;;;;;;;10249828;28;20531;-59
2024/02/10 11:48:45;;;;;;;16.63;3.75;;;;;;;;;;10238454;28;20027;-60
2024/02/10 11:53:49;;;;;;;10.57;3.67;;;;;;;;;;10247855;28;20475;-60
2024/02/10 11:58:50;;;;;;;8.02;3.35;;;;;;;;;;10229021;28;20480;-60
2024/02/10 12:03:51;;;;;;;11.77;3.50;;;;;;;;;;10237964;28;20035;-60
2024/02/10 12:08:51;;;;;;;7.55;3.30;;;;;;;;;;10246208;28;20669;-60
2024/02/10 12:13:58;;;;;;;10.48;3.55;;;;;;;;;;10246719;28;20027;-60
2024/02/10 12:19:01;;;;;;;8.57;3.53;;;;;;;;;;10247816;28;20467;-60
2024/02/10 12:24:04;;;;;;;8.30;3.10;;;;;;;;;;10246096;28;20045;-60
2024/02/10 12:29:10;;;;;;;11.70;3.60;;;;;;;;;;10243744;28;20159;-60
2024/02/10 12:34:14;;;;;;;8.00;3.40;;;;;;;;;;10255381;28;20364;-60
2024/02/10 12:39:15;;;;;;;11.10;3.40;;;;;;;;;;10244200;28;20043;-59
2024/02/10 12:44:17;;;;;;;8.15;3.33;;;;;;;;;;10244935;28;20046;-59
2024/02/10 12:49:18;;;;;;;7.63;3.45;;;;;;;;;;10242761;28;20067;-59
2024/02/10 12:54:20;;;;;;;8.75;3.13;;;;;;;;;;10245114;28;20653;-60
2024/02/10 12:59:22;;;;;;;6.07;3.20;;;;;;;;;;10245228;28;20023;-60
2024/02/10 13:04:23;;;;;;;7.70;3.45;;;;;;;;;;10239971;28;20587;-59
2024/02/10 13:09:24;;;;;;;12.13;3.53;;;;;;;;;;10256133;28;20035;-60
2024/02/10 13:14:25;;;;;;;4.88;2.92;;;;;;;;;;10242626;28;20042;-60
2024/02/10 13:19:26;;;;;;;10.55;3.38;;;;;;;;;;10244352;28;20251;-60
2024/02/10 13:24:31;;;;;;;6.55;3.00;;;;;;;;;;10243730;28;20035;-60
2024/02/10 13:29:31;;;;;;;11.25;3.20;;;;;;;;;;10250501;28;20028;-60
2024/02/10 13:34:32;;;;;;;6.82;3.20;;;;;;;;;;10242407;28;20094;-60
2024/02/10 14:00:49;;;;;;;6.60;2.85;;;;;;;;;;10248547;28;20113;-60
2024/02/10 14:11:00;;;;;;;7.47;3.25;;;;;;;;;;10248301;28;20121;-60
2024/02/10 14:16:05;;;;;;;8.88;3.00;;;;;;;;;;10249136;28;20082;-59
2024/02/10 14:21:12;;;;;;;8.65;2.88;;;;;;;;;;10243920;28;20027;-60
2024/02/10 14:26:15;;;;;;;12.85;3.67;;;;;;;;;;10234640;28;20039;-63
2024/02/10 14:31:21;;;;;;;4.82;2.70;;;;;;;;;;10231899;28;20028;-61
2024/02/10 14:36:38;;;;;;;8.52;2.90;;;;;;;;;;10242418;28;20055;-60
2024/02/10 14:41:40;;;;;;;4.82;3.10;;;;;;;;;;10249605;28;20195;-60
2024/02/10 14:46:44;;;;;;;6.95;3.72;;;;;;;;;;10249182;28;20086;-57
2024/02/10 14:51:45;;;;;;;9.57;3.47;;;;;;;;;;10248799;28;20050;-58
2024/02/10 14:56:46;;;;;;;6.57;2.80;;;;;;;;;;10248409;28;20055;-59
2024/02/10 15:01:48;;;;;;;8.93;3.30;;;;;;;;;;10245515;28;20102;-62
2024/02/10 15:06:49;;;;;;;12.45;3.67;;;;;;;;;;10244777;28;20157;-58
2024/02/10 15:11:49;;;;;;;14.60;3.72;;;;;;;;;;10247213;28;20023;-59
2024/02/10 15:16:51;;;;;;;12.30;3.13;;;;;;;;;;10247076;28;20038;-62
2024/02/10 15:21:52;;;;;;;13.15;2.72;;;;;;;;;;10249640;28;20027;-58
2024/02/10 15:26:53;;;;;;;6.13;3.30;;;;;;;;;;10243026;28;20030;-59
2024/02/10 15:31:56;;;;;;;9.02;3.38;;;;;;;;;;10246773;28;20031;-59
2024/02/10 15:36:57;;;;;;;5.28;3.00;;;;;;;;;;10247860;28;20380;-59
2024/02/10 15:41:57;;;;;;;6.22;3.08;;;;;;;;;;10245224;28;20027;-59
2024/02/10 15:46:58;;;;;;;5.90;2.80;;;;;;;;;;10245397;28;20027;-59
2024/02/10 15:51:59;;;;;;;8.45;3.17;;;;;;;;;;10242958;28;20046;-59
2024/02/10 15:56:59;;;;;;;5.72;2.60;;;;;;;;;;10247526;28;20046;-59
2024/02/10 16:02:00;;;;;;;5.15;2.72;;;;;;;;;;10246575;28;20027;-59
2024/02/10 16:07:01;;;;;;;8.90;3.30;;;;;;;;;;10245374;28;20395;-59
2024/02/10 16:12:01;;;;;;;9.35;3.40;;;;;;;;;;10219326;28;20118;-59
2024/02/10 16:17:02;;;;;;;6.45;3.13;;;;;;;;;;10226289;28;20039;-59
2024/02/10 16:22:04;;;;;;;6.30;3.17;;;;;;;;;;10225735;28;20035;-59
2024/02/10 16:27:05;;;;;;;4.68;2.90;;;;;;;;;;10239963;28;20040;-59
2024/02/10 16:32:10;;;;;;;7.47;2.83;;;;;;;;;;10218728;28;21355;-59
2024/02/10 16:37:12;;;;;;;7.65;3.25;;;;;;;;;;10242257;28;20466;-59
2024/02/10 16:42:15;;;;;;;6.30;2.90;;;;;;;;;;10222901;28;20050;-59
2024/02/10 16:47:16;;;;;;;10.45;3.47;;;;;;;;;;10232813;28;20109;-59
2024/02/10 16:52:16;;;;;;;9.25;3.45;;;;;;;;;;10225120;28;20038;-59
2024/02/10 16:57:17;;;;;;;6.43;3.22;;;;;;;;;;10225207;28;20058;-59
2024/02/10 17:02:18;;;;;;;8.95;3.70;;;;;;;;;;10242727;28;20031;-59
2024/02/10 17:07:21;;;;;;;6.53;3.08;;;;;;;;;;10242015;28;20031;-59
2024/02/10 17:12:24;;;;;;;9.25;3.75;;;;;;;;;;10243239;28;20034;-59
2024/02/10 17:17:27;;;;;;;5.45;2.65;;;;;;;;;;10244811;28;20039;-60
2024/02/10 17:22:28;;;;;;;6.80;3.67;;;;;;;;;;10224751;28;20028;-59
2024/02/10 17:27:31;;;;;;;18.80;3.13;;;;;;;;;;10234032;28;20594;-61
2024/02/10 17:32:33;;;;;;;11.52;2.97;;;;;;;;;;10236058;28;20030;-60
2024/02/10 17:37:34;;;;;;;7.72;3.30;;;;;;;;;;10181850;28;20537;-60
2024/02/10 17:42:37;;;;;;;7.82;3.15;;;;;;;;;;10190445;28;20046;-60
2024/02/10 17:47:37;;;;;;;8.45;3.03;;;;;;;;;;10193384;28;20487;-61
2024/02/10 17:52:38;;;;;;;8.55;3.25;;;;;;;;;;10194576;28;20086;-58
2024/02/10 17:57:39;;;;;;;5.25;3.20;;;;;;;;;;10188012;28;20050;-60
2024/02/10 18:02:39;;;;;;;7.07;2.83;;;;;;;;;;10193614;28;20099;-60
2024/02/10 18:07:40;;;;;;;6.25;3.10;;;;;;;;;;10190037;28;20035;-60
2024/02/10 18:12:40;;;;;;;7.18;2.83;;;;;;;;;;10197398;28;20043;-60
2024/02/10 18:17:45;;;;;;;5.30;3.22;;;;;;;;;;10253206;28;20032;-60
2024/02/10 18:22:47;;;;;;;6.10;2.92;;;;;;;;;;10246855;28;20043;-60
2024/02/10 18:27:47;;;;;;;10.25;3.00;;;;;;;;;;10249105;28;20035;-61
2024/02/10 18:32:49;;;;;;;5.93;3.22;;;;;;;;;;10231268;28;20046;-61
2024/02/10 18:38:01;;;;;;;7.38;3.67;;;;;;;;;;10238322;28;20044;-60
2024/02/10 18:43:01;;;;;;;16.85;5.53;;;;;;;;;;10241606;28;20547;-60
2024/02/10 18:48:05;;;;;;;17.67;5.13;;;;;;;;;;10247514;28;20031;-62
2024/02/10 18:53:09;;;;;;;12.73;4.53;;;;;;;;;;10246859;28;20034;-61
2024/02/10 18:58:11;;;;;;;14.82;5.07;;;;;;;;;;10245340;28;20607;-61
2024/02/10 19:03:14;;;;;;;16.08;5.40;;;;;;;;;;10244564;28;20035;-62
2024/02/10 19:08:15;;;;;;;12.85;4.85;;;;;;;;;;10243423;28;20053;-62
2024/02/10 19:13:16;;;;;;;13.07;4.93;;;;;;;;;;10242582;28;20034;-62
2024/02/10 19:18:20;;;;;;;37.95;7.10;;;;;;;;;;10246677;28;20094;-62
2024/02/10 19:23:21;;;;;;;33.92;7.80;;;;;;;;;;10237934;28;20046;-62
2024/02/10 19:28:22;;;;;;;21.25;6.35;;;;;;;;;;10245089;28;20027;-62
2024/02/10 19:33:23;;;;;;;15.60;6.18;;;;;;;;;;10247467;28;20647;-62
2024/02/10 19:38:24;;;;;;;20.30;6.20;;;;;;;;;;10247803;28;20051;-61
2024/02/10 19:43:28;;;;;;;13.23;5.30;;;;;;;;;;10238125;28;20101;-60
2024/02/10 19:48:30;;;;;;;21.63;6.22;;;;;;;;;;10243262;28;20051;-60
2024/02/10 19:53:31;;;;;;;20.83;5.60;;;;;;;;;;10246818;28;20498;-60
2024/02/10 19:58:35;;;;;;;25.83;5.28;;;;;;;;;;10247274;28;20028;-60
2024/02/10 20:03:38;;;;;;;16.17;5.68;;;;;;;;;;10247499;28;20039;-60
2024/02/10 20:08:40;;;;;;;22.48;6.03;;;;;;;;;;10247449;28;20043;-60
2024/02/10 20:13:41;;;;;;;26.13;5.13;;;;;;;;;;10247675;28;20031;-60
2024/02/10 20:18:41;;;;;;;14.23;5.07;;;;;;;;;;10246387;28;20380;-61
2024/02/10 20:23:44;;;;;;;21.73;5.30;;;;;;;;;;10246745;28;20432;-60
2024/02/10 20:28:45;;;;;;;19.85;5.38;;;;;;;;;;10247067;28;20027;-60
2024/02/10 20:33:52;;;;;;;10.80;4.32;;;;;;;;;;10246342;28;20455;-60
2024/02/10 20:38:54;;;;;;;18.27;5.27;;;;;;;;;;10244218;28;20043;-60
2024/02/10 20:43:55;;;;;;;15.32;4.70;;;;;;;;;;10241358;28;20502;-61
2024/02/10 20:48:56;;;;;;;11.95;5.43;;;;;;;;;;10245145;28;20074;-60
2024/02/10 20:53:57;;;;;;;15.98;4.45;;;;;;;;;;10246336;28;20023;-59
2024/02/10 20:58:58;;;;;;;13.90;5.05;;;;;;;;;;10244683;28;20490;-60
2024/02/10 21:03:59;;;;;;;13.48;5.53;;;;;;;;;;10244880;28;20035;-60
2024/02/10 21:09:06;;;;;;;16.15;5.03;;;;;;;;;;10245725;28;20019;-61
2024/02/10 21:14:13;;;;;;;16.85;5.03;;;;;;;;;;10244514;28;20031;-60
2024/02/10 21:19:14;;;;;;;26.10;6.47;;;;;;;;;;10232256;28;20031;-61
2024/02/10 21:24:14;;;;;;;26.52;6.78;;;;;;;;;;10243380;28;20700;-60
2024/02/10 21:29:15;;;;;;;14.90;5.85;;;;;;;;;;10242974;28;20097;-60
2024/02/10 21:34:16;;;;;;;27.77;6.32;;;;;;;;;;10243724;28;20027;-60
2024/02/10 21:39:17;;;;;;;20.05;5.40;;;;;;;;;;10243774;28;20431;-60
2024/02/10 21:44:18;;;;;;;32.22;5.68;;;;;;;;;;10243659;28;20055;-60
2024/02/10 21:49:19;;;;;;;21.75;5.18;;;;;;;;;;10244188;28;20733;-60
2024/02/10 21:54:24;;;;;;;18.25;6.20;;;;;;;;;;10229193;28;20042;-60
2024/02/10 21:59:27;;;;;;;24.77;6.22;;;;;;;;;;10240126;28;20098;-60
2024/02/10 22:04:28;;;;;;;19.60;5.65;;;;;;;;;;10242011;28;20286;-60
2024/02/10 22:09:29;;;;;;;23.95;5.85;;;;;;;;;;10237896;28;20082;-60
2024/02/10 22:14:30;;;;;;;20.05;5.70;;;;;;;;;;10235013;28;20114;-60
2024/02/10 22:19:30;;;;;;;16.35;5.85;;;;;;;;;;10240045;28;20028;-60
2024/02/10 22:24:32;;;;;;;20.17;5.68;;;;;;;;;;10249096;28;20487;-59
2024/02/10 22:29:32;;;;;;;24.45;6.57;;;;;;;;;;10245715;28;20039;-60
2024/02/10 22:34:33;;;;;;;19.58;5.50;;;;;;;;;;10232072;28;20023;-59
2024/02/10 22:39:38;;;;;;;19.45;5.53;;;;;;;;;;10244764;28;20039;-60
2024/02/10 22:44:41;;;;;;;20.42;5.28;;;;;;;;;;10245447;28;20090;-60
2024/02/10 22:49:45;;;;;;;23.25;5.22;;;;;;;;;;10246287;28;20039;-60
2024/02/10 22:54:47;;;;;;;18.65;5.32;;;;;;;;;;10250056;28;20498;-60
2024/02/10 22:59:51;;;;;;;17.38;5.50;;;;;;;;;;10248184;28;20035;-60
2024/02/10 23:04:56;;;;;;;22.00;5.30;;;;;;;;;;10248776;28;20035;-60
2024/02/10 23:09:57;;;;;;;17.60;5.35;;;;;;;;;;10242226;28;20036;-60
2024/02/10 23:14:58;;;;;;;22.75;5.50;;;;;;;;;;10229703;28;20035;-60
2024/02/10 23:19:59;;;;;;;19.23;5.72;;;;;;;;;;10249572;28;20023;-60
2024/02/10 23:25:00;;;;;;;18.95;5.35;;;;;;;;;;10244523;28;20035;-60
2024/02/10 23:30:03;;;;;;;17.65;4.60;;;;;;;;;;10247049;28;20031;-60
2024/02/10 23:35:04;;;;;;;13.27;4.55;;;;;;;;;;10243985;28;20035;-60
2024/02/10 23:40:13;;;;;;;19.00;4.90;;;;;;;;;;10249632;28;20062;-61
2024/02/10 23:45:17;;;;;;;15.20;5.07;;;;;;;;;;10247364;28;20461;-61
2024/02/10 23:50:19;;;;;;;15.80;4.55;;;;;;;;;;10246069;28;20045;-61
2024/02/10 23:55:19;;;;;;;19.23;5.10;;;;;;;;;;10241384;28;20455;-61
